sensor_id;sensor_type;location;lat;lon;timestamp;pressure;altitude;pressure_sealevel;temperature;humidity
56006;BME280;41888;44.696;10.522;2024-02-23T00:00:17;98582.88;;;6.83;100.00
56006;BME280;41888;44.696;10.522;2024-02-23T00:02:44;98571.38;;;6.77;100.00
56006;BME280;41888;44.696;10.522;2024-02-23T00:05:10;98573.78;;;6.79;100.00
56006;BME280;41888;44.696;10.522;2024-02-23T00:07:36;98564.25;;;6.78;100.00
56006;BME280;41888;44.696;10.522;2024-02-23T00:10:02;98560.84;;;6.89;100.00
56006;BME280;41888;44.696;10.522;2024-02-23T00:12:28;98565.28;;;7.18;100.00
56006;BME280;41888;44.696;10.522;2024-02-23T00:14:55;98566.41;;;7.22;100.00
56006;BME280;41888;44.696;10.522;2024-02-23T00:17:21;98555.13;;;7.15;100.00
56006;BME280;41888;44.696;10.522;2024-02-23T00:19:48;98547.78;;;7.17;100.00
56006;BME280;41888;44.696;10.522;2024-02-23T00:22:15;98543.56;;;7.40;100.00
56006;BME280;41888;44.696;10.522;2024-02-23T00:24:41;98537.22;;;7.64;100.00
56006;BME280;41888;44.696;10.522;2024-02-23T00:27:07;98530.66;;;7.43;100.00
56006;BME280;41888;44.696;10.522;2024-02-23T00:29:33;98522.72;;;7.43;100.00
56006;BME280;41888;44.696;10.522;2024-02-23T00:31:59;98521.22;;;7.71;100.00
56006;BME280;41888;44.696;10.522;2024-02-23T00:34:26;98522.94;;;7.65;100.00
56006;BME280;41888;44.696;10.522;2024-02-23T00:36:52;98522.34;;;7.51;100.00
56006;BME280;41888;44.696;10.522;2024-02-23T00:39:18;98521.91;;;7.43;100.00
56006;BME280;41888;44.696;10.522;2024-02-23T00:41:45;98518.47;;;7.19;100.00
56006;BME280;41888;44.696;10.522;2024-02-23T00:44:11;98512.59;;;7.29;100.00
56006;BME280;41888;44.696;10.522;2024-02-23T00:46:37;98500.06;;;7.24;100.00
56006;BME280;41888;44.696;10.522;2024-02-23T00:49:05;98497.78;;;7.28;100.00
56006;BME280;41888;44.696;10.522;2024-02-23T00:51:31;98491.56;;;7.22;100.00
56006;BME280;41888;44.696;10.522;2024-02-23T00:53:57;98497.53;;;7.17;100.00
56006;BME280;41888;44.696;10.522;2024-02-23T00:56:24;98486.84;;;7.12;100.00
56006;BME280;41888;44.696;10.522;2024-02-23T00:58:51;98480.53;;;7.13;100.00
56006;BME280;41888;44.696;10.522;2024-02-23T01:01:17;98472.94;;;7.17;100.00
56006;BME280;41888;44.696;10.522;2024-02-23T01:03:43;98479.47;;;7.14;100.00
56006;BME280;41888;44.696;10.522;2024-02-23T01:06:09;98473.97;;;7.28;100.00
56006;BME280;41888;44.696;10.522;2024-02-23T01:08:35;98469.38;;;7.35;100.00
56006;BME280;41888;44.696;10.522;2024-02-23T01:11:02;98463.34;;;7.51;100.00
56006;BME280;41888;44.696;10.522;2024-02-23T01:13:28;98452.88;;;7.56;100.00
56006;BME280;41888;44.696;10.522;2024-02-23T01:15:54;98450.38;;;7.49;100.00
56006;BME280;41888;44.696;10.522;2024-02-23T01:18:20;98446.53;;;7.57;100.00
56006;BME280;41888;44.696;10.522;2024-02-23T01:20:47;98443.19;;;7.61;100.00
56006;BME280;41888;44.696;10.522;2024-02-23T01:23:13;98439.50;;;7.62;100.00
56006;BME280;41888;44.696;10.522;2024-02-23T01:25:39;98409.13;;;7.65;100.00
56006;BME280;41888;44.696;10.522;2024-02-23T01:28:06;98418.06;;;7.76;100.00
56006;BME280;41888;44.696;10.522;2024-02-23T01:30:32;98424.63;;;7.73;100.00
56006;BME280;41888;44.696;10.522;2024-02-23T01:32:59;98430.78;;;7.90;100.00
56006;BME280;41888;44.696;10.522;2024-02-23T01:35:26;98431.53;;;8.14;100.00
56006;BME280;41888;44.696;10.522;2024-02-23T01:37:53;98419.13;;;8.20;100.00
56006;BME280;41888;44.696;10.522;2024-02-23T01:40:20;98411.19;;;8.20;100.00
56006;BME280;41888;44.696;10.522;2024-02-23T01:42:46;98408.22;;;8.16;100.00
56006;BME280;41888;44.696;10.522;2024-02-23T01:45:12;98407.88;;;8.41;100.00
56006;BME280;41888;44.696;10.522;2024-02-23T01:47:38;98410.78;;;8.73;100.00
56006;BME280;41888;44.696;10.522;2024-02-23T01:50:05;98393.53;;;8.87;100.00
56006;BME280;41888;44.696;10.522;2024-02-23T01:52:34;98410.63;;;8.79;100.00
56006;BME280;41888;44.696;10.522;2024-02-23T01:55:00;98403.25;;;8.65;100.00
56006;BME280;41888;44.696;10.522;2024-02-23T01:57:27;98393.03;;;8.57;100.00
56006;BME280;41888;44.696;10.522;2024-02-23T01:59:53;98399.94;;;8.91;100.00
56006;BME280;41888;44.696;10.522;2024-02-23T02:02:20;98408.41;;;8.88;100.00
56006;BME280;41888;44.696;10.522;2024-02-23T02:04:46;98411.19;;;8.81;100.00
56006;BME280;41888;44.696;10.522;2024-02-23T02:07:13;98387.34;;;8.81;100.00
56006;BME280;41888;44.696;10.522;2024-02-23T02:09:39;98364.28;;;8.82;100.00
56006;BME280;41888;44.696;10.522;2024-02-23T02:12:05;98350.44;;;8.80;100.00
56006;BME280;41888;44.696;10.522;2024-02-23T02:14:31;98349.34;;;8.76;100.00
56006;BME280;41888;44.696;10.522;2024-02-23T02:16:59;98340.06;;;9.17;100.00
56006;BME280;41888;44.696;10.522;2024-02-23T02:19:25;98332.56;;;9.09;100.00
56006;BME280;41888;44.696;10.522;2024-02-23T02:21:51;98332.25;;;8.67;100.00
56006;BME280;41888;44.696;10.522;2024-02-23T02:24:18;98327.41;;;8.64;100.00
56006;BME280;41888;44.696;10.522;2024-02-23T02:26:44;98318.00;;;8.73;100.00
56006;BME280;41888;44.696;10.522;2024-02-23T02:29:13;98312.72;;;8.95;100.00
56006;BME280;41888;44.696;10.522;2024-02-23T02:31:39;98314.63;;;8.77;100.00
56006;BME280;41888;44.696;10.522;2024-02-23T02:34:06;98319.00;;;8.50;100.00
56006;BME280;41888;44.696;10.522;2024-02-23T02:36:32;98318.84;;;8.40;100.00
56006;BME280;41888;44.696;10.522;2024-02-23T02:38:58;98318.50;;;8.53;100.00
56006;BME280;41888;44.696;10.522;2024-02-23T02:41:28;98319.88;;;8.56;100.00
56006;BME280;41888;44.696;10.522;2024-02-23T02:43:55;98287.59;;;8.42;100.00
56006;BME280;41888;44.696;10.522;2024-02-23T02:46:22;98297.94;;;8.27;100.00
56006;BME280;41888;44.696;10.522;2024-02-23T02:48:48;98311.53;;;8.14;100.00
56006;BME280;41888;44.696;10.522;2024-02-23T02:51:14;98302.81;;;8.30;100.00
56006;BME280;41888;44.696;10.522;2024-02-23T02:53:40;98277.78;;;8.59;100.00
56006;BME280;41888;44.696;10.522;2024-02-23T02:56:07;98282.94;;;8.87;100.00
56006;BME280;41888;44.696;10.522;2024-02-23T02:58:33;98271.28;;;8.88;100.00
56006;BME280;41888;44.696;10.522;2024-02-23T03:00:59;98263.19;;;9.00;100.00
56006;BME280;41888;44.696;10.522;2024-02-23T03:03:25;98275.84;;;9.15;100.00
56006;BME280;41888;44.696;10.522;2024-02-23T03:05:51;98257.41;;;9.25;100.00
56006;BME280;41888;44.696;10.522;2024-02-23T03:08:17;98249.94;;;9.22;100.00
56006;BME280;41888;44.696;10.522;2024-02-23T03:10:44;98244.88;;;9.20;100.00
56006;BME280;41888;44.696;10.522;2024-02-23T03:13:10;98227.72;;;9.28;100.00
56006;BME280;41888;44.696;10.522;2024-02-23T03:15:36;98232.91;;;9.18;100.00
56006;BME280;41888;44.696;10.522;2024-02-23T03:18:02;98227.56;;;9.13;100.00
56006;BME280;41888;44.696;10.522;2024-02-23T03:20:28;98212.53;;;9.23;100.00
56006;BME280;41888;44.696;10.522;2024-02-23T03:22:55;98209.44;;;9.31;100.00
56006;BME280;41888;44.696;10.522;2024-02-23T03:25:21;98211.75;;;9.50;100.00
56006;BME280;41888;44.696;10.522;2024-02-23T03:27:47;98195.09;;;9.59;100.00
56006;BME280;41888;44.696;10.522;2024-02-23T03:30:14;98193.19;;;9.55;100.00
56006;BME280;41888;44.696;10.522;2024-02-23T03:32:41;98199.69;;;9.69;100.00
56006;BME280;41888;44.696;10.522;2024-02-23T03:35:08;98183.75;;;9.69;100.00
56006;BME280;41888;44.696;10.522;2024-02-23T03:37:35;98176.06;;;9.67;100.00
56006;BME280;41888;44.696;10.522;2024-02-23T03:40:01;98161.22;;;9.71;100.00
56006;BME280;41888;44.696;10.522;2024-02-23T03:42:27;98163.41;;;10.16;100.00
56006;BME280;41888;44.696;10.522;2024-02-23T03:44:54;98158.53;;;10.50;100.00
56006;BME280;41888;44.696;10.522;2024-02-23T03:47:20;98166.09;;;10.79;100.00
56006;BME280;41888;44.696;10.522;2024-02-23T03:49:47;98167.25;;;11.13;100.00
56006;BME280;41888;44.696;10.522;2024-02-23T03:52:13;98155.56;;;11.24;100.00
56006;BME280;41888;44.696;10.522;2024-02-23T03:54:39;98165.97;;;11.26;100.00
56006;BME280;41888;44.696;10.522;2024-02-23T03:57:05;98162.75;;;11.19;100.00
56006;BME280;41888;44.696;10.522;2024-02-23T03:59:31;98151.88;;;11.35;100.00
56006;BME280;41888;44.696;10.522;2024-02-23T04:01:58;98156.13;;;11.36;100.00
56006;BME280;41888;44.696;10.522;2024-02-23T04:04:24;98148.66;;;11.43;100.00
56006;BME280;41888;44.696;10.522;2024-02-23T04:06:50;98158.25;;;11.39;100.00
56006;BME280;41888;44.696;10.522;2024-02-23T04:09:16;98145.75;;;11.45;100.00
56006;BME280;41888;44.696;10.522;2024-02-23T04:11:42;98151.31;;;11.49;100.00
56006;BME280;41888;44.696;10.522;2024-02-23T04:14:09;98156.41;;;11.50;100.00
56006;BME280;41888;44.696;10.522;2024-02-23T04:16:35;98129.50;;;11.41;100.00
56006;BME280;41888;44.696;10.522;2024-02-23T04:19:01;98124.19;;;11.36;100.00
56006;BME280;41888;44.696;10.522;2024-02-23T04:21:27;98120.44;;;11.27;100.00
56006;BME280;41888;44.696;10.522;2024-02-23T04:23:53;98126.56;;;11.28;100.00
56006;BME280;41888;44.696;10.522;2024-02-23T04:26:20;98128.97;;;11.39;100.00
56006;BME280;41888;44.696;10.522;2024-02-23T04:28:46;98126.56;;;11.33;100.00
56006;BME280;41888;44.696;10.522;2024-02-23T04:31:12;98134.03;;;11.36;100.00
56006;BME280;41888;44.696;10.522;2024-02-23T04:33:38;98118.31;;;11.39;100.00
56006;BME280;41888;44.696;10.522;2024-02-23T04:36:05;98112.44;;;11.37;100.00
56006;BME280;41888;44.696;10.522;2024-02-23T04:38:33;98110.84;;;11.21;100.00
56006;BME280;41888;44.696;10.522;2024-02-23T04:41:03;98095.41;;;11.28;100.00
56006;BME280;41888;44.696;10.522;2024-02-23T04:43:30;98098.06;;;11.28;100.00
56006;BME280;41888;44.696;10.522;2024-02-23T04:45:57;98095.66;;;11.27;100.00
56006;BME280;41888;44.696;10.522;2024-02-23T04:48:23;98106.06;;;11.18;100.00
56006;BME280;41888;44.696;10.522;2024-02-23T04:50:49;98090.63;;;11.15;100.00
56006;BME280;41888;44.696;10.522;2024-02-23T04:53:15;98095.94;;;11.15;100.00
56006;BME280;41888;44.696;10.522;2024-02-23T04:55:41;98092.19;;;11.16;100.00
56006;BME280;41888;44.696;10.522;2024-02-23T04:58:07;98081.84;;;11.20;100.00
56006;BME280;41888;44.696;10.522;2024-02-23T05:00:34;98085.56;;;11.29;100.00
56006;BME280;41888;44.696;10.522;2024-02-23T05:03:00;98068.78;;;11.28;100.00
56006;BME280;41888;44.696;10.522;2024-02-23T05:05:32;98062.66;;;11.43;100.00
56006;BME280;41888;44.696;10.522;2024-02-23T05:07:58;98070.66;;;11.33;100.00
56006;BME280;41888;44.696;10.522;2024-02-23T05:10:25;98054.97;;;11.31;100.00
56006;BME280;41888;44.696;10.522;2024-02-23T05:12:51;98064.00;;;11.35;100.00
56006;BME280;41888;44.696;10.522;2024-02-23T05:15:17;98061.84;;;11.48;100.00
56006;BME280;41888;44.696;10.522;2024-02-23T05:17:44;98054.41;;;11.44;100.00
56006;BME280;41888;44.696;10.522;2024-02-23T05:20:11;98052.28;;;11.47;100.00
56006;BME280;41888;44.696;10.522;2024-02-23T05:22:38;98059.19;;;11.48;100.00
56006;BME280;41888;44.696;10.522;2024-02-23T05:25:04;98044.31;;;11.47;100.00
56006;BME280;41888;44.696;10.522;2024-02-23T05:27:31;98042.41;;;11.42;100.00
56006;BME280;41888;44.696;10.522;2024-02-23T05:29:57;98051.22;;;11.42;100.00
56006;BME280;41888;44.696;10.522;2024-02-23T05:32:23;98050.16;;;11.38;100.00
56006;BME280;41888;44.696;10.522;2024-02-23T05:34:50;98037.09;;;11.37;100.00
56006;BME280;41888;44.696;10.522;2024-02-23T05:37:19;98050.94;;;11.39;100.00
56006;BME280;41888;44.696;10.522;2024-02-23T05:39:45;98048.84;;;11.36;100.00
56006;BME280;41888;44.696;10.522;2024-02-23T05:42:12;98045.63;;;11.24;100.00
56006;BME280;41888;44.696;10.522;2024-02-23T05:44:39;98046.69;;;11.23;100.00
56006;BME280;41888;44.696;10.522;2024-02-23T05:47:06;98046.44;;;11.14;100.00
56006;BME280;41888;44.696;10.522;2024-02-23T05:49:32;98046.97;;;11.11;100.00
56006;BME280;41888;44.696;10.522;2024-02-23T05:51:58;98049.63;;;11.06;100.00
56006;BME280;41888;44.696;10.522;2024-02-23T05:54:24;98040.56;;;11.32;100.00
56006;BME280;41888;44.696;10.522;2024-02-23T05:56:51;98040.06;;;11.30;100.00
56006;BME280;41888;44.696;10.522;2024-02-23T05:59:17;98042.44;;;11.32;100.00
56006;BME280;41888;44.696;10.522;2024-02-23T06:01:43;98036.84;;;11.38;100.00
56006;BME280;41888;44.696;10.522;2024-02-23T06:04:09;98042.16;;;11.43;100.00
56006;BME280;41888;44.696;10.522;2024-02-23T06:06:36;98041.13;;;11.34;100.00
56006;BME280;41888;44.696;10.522;2024-02-23T06:09:02;98054.97;;;11.36;100.00
56006;BME280;41888;44.696;10.522;2024-02-23T06:11:28;98049.09;;;11.34;100.00
56006;BME280;41888;44.696;10.522;2024-02-23T06:13:55;98058.69;;;11.30;100.00
56006;BME280;41888;44.696;10.522;2024-02-23T06:16:21;98065.59;;;11.06;100.00
56006;BME280;41888;44.696;10.522;2024-02-23T06:18:47;98063.97;;;10.95;100.00
56006;BME280;41888;44.696;10.522;2024-02-23T06:21:17;98067.97;;;10.87;100.00
56006;BME280;41888;44.696;10.522;2024-02-23T06:23:44;98067.97;;;10.82;100.00
56006;BME280;41888;44.696;10.522;2024-02-23T06:26:11;98067.66;;;10.79;100.00
56006;BME280;41888;44.696;10.522;2024-02-23T06:28:37;98049.59;;;10.71;100.00
56006;BME280;41888;44.696;10.522;2024-02-23T06:31:15;98066.06;;;10.63;100.00
56006;BME280;41888;44.696;10.522;2024-02-23T06:33:41;98062.31;;;10.58;100.00
56006;BME280;41888;44.696;10.522;2024-02-23T06:36:08;98064.44;;;10.51;100.00
56006;BME280;41888;44.696;10.522;2024-02-23T06:38:35;98053.25;;;10.49;100.00
56006;BME280;41888;44.696;10.522;2024-02-23T06:41:01;98049.25;;;10.47;100.00
56006;BME280;41888;44.696;10.522;2024-02-23T06:43:27;98048.16;;;10.38;100.00
56006;BME280;41888;44.696;10.522;2024-02-23T06:45:54;98061.78;;;9.99;100.00
56006;BME280;41888;44.696;10.522;2024-02-23T06:48:20;98068.16;;;9.51;100.00
56006;BME280;41888;44.696;10.522;2024-02-23T06:50:46;98074.88;;;9.27;100.00
56006;BME280;41888;44.696;10.522;2024-02-23T06:53:12;98066.03;;;8.89;100.00
56006;BME280;41888;44.696;10.522;2024-02-23T06:55:39;98073.09;;;8.52;100.00
56006;BME280;41888;44.696;10.522;2024-02-23T06:58:05;98093.53;;;8.57;100.00
56006;BME280;41888;44.696;10.522;2024-02-23T07:00:33;98099.59;;;8.52;100.00
56006;BME280;41888;44.696;10.522;2024-02-23T07:02:59;98107.47;;;8.47;100.00
56006;BME280;41888;44.696;10.522;2024-02-23T07:05:27;98111.06;;;8.36;100.00
56006;BME280;41888;44.696;10.522;2024-02-23T07:07:53;98125.84;;;8.32;100.00
56006;BME280;41888;44.696;10.522;2024-02-23T07:10:19;98117.66;;;8.33;100.00
56006;BME280;41888;44.696;10.522;2024-02-23T07:12:48;98128.91;;;8.24;100.00
56006;BME280;41888;44.696;10.522;2024-02-23T07:15:14;98146.94;;;8.27;100.00
56006;BME280;41888;44.696;10.522;2024-02-23T07:17:41;98124.41;;;8.24;100.00
56006;BME280;41888;44.696;10.522;2024-02-23T07:20:07;98143.00;;;8.29;100.00
56006;BME280;41888;44.696;10.522;2024-02-23T07:22:33;98143.19;;;8.23;100.00
56006;BME280;41888;44.696;10.522;2024-02-23T07:25:00;98152.75;;;8.24;100.00
56006;BME280;41888;44.696;10.522;2024-02-23T07:27:29;98152.53;;;8.09;100.00
56006;BME280;41888;44.696;10.522;2024-02-23T07:29:57;98160.78;;;8.12;100.00
56006;BME280;41888;44.696;10.522;2024-02-23T07:32:23;98169.22;;;8.09;100.00
56006;BME280;41888;44.696;10.522;2024-02-23T07:34:49;98169.72;;;8.06;100.00
56006;BME280;41888;44.696;10.522;2024-02-23T07:37:15;98180.88;;;8.08;100.00
56006;BME280;41888;44.696;10.522;2024-02-23T07:39:41;98181.84;;;8.02;100.00
56006;BME280;41888;44.696;10.522;2024-02-23T07:42:08;98173.56;;;7.98;100.00
56006;BME280;41888;44.696;10.522;2024-02-23T07:44:36;98189.44;;;7.98;100.00
56006;BME280;41888;44.696;10.522;2024-02-23T07:47:03;98195.16;;;7.90;100.00
56006;BME280;41888;44.696;10.522;2024-02-23T07:49:30;98190.28;;;7.82;100.00
56006;BME280;41888;44.696;10.522;2024-02-23T07:51:56;98198.44;;;7.81;100.00
56006;BME280;41888;44.696;10.522;2024-02-23T07:54:22;98206.47;;;7.69;100.00
56006;BME280;41888;44.696;10.522;2024-02-23T07:56:49;98200.59;;;7.67;100.00
56006;BME280;41888;44.696;10.522;2024-02-23T07:59:15;98205.81;;;7.62;100.00
56006;BME280;41888;44.696;10.522;2024-02-23T08:01:41;98207.41;;;7.63;100.00
56006;BME280;41888;44.696;10.522;2024-02-23T08:04:07;98202.34;;;7.61;100.00
56006;BME280;41888;44.696;10.522;2024-02-23T08:06:33;98210.78;;;7.58;100.00
56006;BME280;41888;44.696;10.522;2024-02-23T08:08:59;98211.59;;;7.59;100.00
56006;BME280;41888;44.696;10.522;2024-02-23T08:11:26;98202.78;;;7.53;100.00
56006;BME280;41888;44.696;10.522;2024-02-23T08:13:52;98191.94;;;7.55;100.00
56006;BME280;41888;44.696;10.522;2024-02-23T08:16:18;98193.38;;;7.46;100.00
56006;BME280;41888;44.696;10.522;2024-02-23T08:18:44;98195.06;;;7.52;100.00
56006;BME280;41888;44.696;10.522;2024-02-23T08:21:10;98197.97;;;7.50;100.00
56006;BME280;41888;44.696;10.522;2024-02-23T08:23:37;98212.53;;;7.53;100.00
56006;BME280;41888;44.696;10.522;2024-02-23T08:26:03;98206.59;;;7.46;100.00
56006;BME280;41888;44.696;10.522;2024-02-23T08:28:29;98195.69;;;7.42;100.00
56006;BME280;41888;44.696;10.522;2024-02-23T08:30:56;98193.28;;;7.41;100.00
56006;BME280;41888;44.696;10.522;2024-02-23T08:33:22;98195.38;;;7.39;100.00
56006;BME280;41888;44.696;10.522;2024-02-23T08:35:48;98193.78;;;7.38;100.00
56006;BME280;41888;44.696;10.522;2024-02-23T08:38:14;98203.41;;;7.44;100.00
56006;BME280;41888;44.696;10.522;2024-02-23T08:40:41;98202.75;;;7.37;100.00
56006;BME280;41888;44.696;10.522;2024-02-23T08:43:08;98210.91;;;7.35;100.00
56006;BME280;41888;44.696;10.522;2024-02-23T08:45:34;98202.50;;;7.38;100.00
56006;BME280;41888;44.696;10.522;2024-02-23T08:48:00;98207.47;;;7.35;100.00
56006;BME280;41888;44.696;10.522;2024-02-23T08:50:26;98197.13;;;7.33;100.00
56006;BME280;41888;44.696;10.522;2024-02-23T08:52:52;98202.66;;;7.32;100.00
56006;BME280;41888;44.696;10.522;2024-02-23T08:55:18;98211.38;;;7.32;100.00
56006;BME280;41888;44.696;10.522;2024-02-23T08:57:44;98224.84;;;7.31;100.00
56006;BME280;41888;44.696;10.522;2024-02-23T09:00:11;98224.03;;;7.30;100.00
56006;BME280;41888;44.696;10.522;2024-02-23T09:02:37;98222.19;;;7.31;100.00
56006;BME280;41888;44.696;10.522;2024-02-23T09:05:04;98228.53;;;7.30;100.00
56006;BME280;41888;44.696;10.522;2024-02-23T09:07:31;98222.47;;;7.29;100.00
56006;BME280;41888;44.696;10.522;2024-02-23T09:09:57;98215.97;;;7.37;100.00
56006;BME280;41888;44.696;10.522;2024-02-23T09:12:23;98228.66;;;7.35;100.00
56006;BME280;41888;44.696;10.522;2024-02-23T09:14:49;98239.44;;;7.33;100.00
56006;BME280;41888;44.696;10.522;2024-02-23T09:17:15;98247.72;;;7.37;100.00
56006;BME280;41888;44.696;10.522;2024-02-23T09:19:42;98260.63;;;7.33;100.00
56006;BME280;41888;44.696;10.522;2024-02-23T09:22:08;98262.06;;;7.41;100.00
56006;BME280;41888;44.696;10.522;2024-02-23T09:24:34;98253.56;;;7.39;100.00
56006;BME280;41888;44.696;10.522;2024-02-23T09:27:01;98248.91;;;7.46;100.00
56006;BME280;41888;44.696;10.522;2024-02-23T09:29:27;98254.13;;;7.41;100.00
56006;BME280;41888;44.696;10.522;2024-02-23T09:31:53;98262.63;;;7.43;100.00
56006;BME280;41888;44.696;10.522;2024-02-23T09:34:20;98269.91;;;7.36;100.00
56006;BME280;41888;44.696;10.522;2024-02-23T09:36:46;98266.53;;;7.40;100.00
56006;BME280;41888;44.696;10.522;2024-02-23T09:39:12;98253.72;;;7.32;100.00
56006;BME280;41888;44.696;10.522;2024-02-23T09:41:39;98275.19;;;7.36;100.00
56006;BME280;41888;44.696;10.522;2024-02-23T09:44:08;98263.03;;;7.35;100.00
56006;BME280;41888;44.696;10.522;2024-02-23T09:46:37;98271.28;;;7.38;100.00
56006;BME280;41888;44.696;10.522;2024-02-23T09:49:04;98267.34;;;7.41;100.00
56006;BME280;41888;44.696;10.522;2024-02-23T09:51:33;98282.59;;;7.34;100.00
56006;BME280;41888;44.696;10.522;2024-02-23T09:53:59;98284.03;;;7.41;100.00
56006;BME280;41888;44.696;10.522;2024-02-23T09:56:28;98279.78;;;7.40;100.00
56006;BME280;41888;44.696;10.522;2024-02-23T09:59:02;98276.50;;;7.33;100.00
56006;BME280;41888;44.696;10.522;2024-02-23T10:01:31;98263.34;;;7.38;100.00
56006;BME280;41888;44.696;10.522;2024-02-23T10:04:00;98263.22;;;7.45;100.00
56006;BME280;41888;44.696;10.522;2024-02-23T10:06:26;98262.69;;;7.31;100.00
56006;BME280;41888;44.696;10.522;2024-02-23T10:08:53;98270.63;;;7.31;100.00
56006;BME280;41888;44.696;10.522;2024-02-23T10:11:23;98269.91;;;7.36;100.00
56006;BME280;41888;44.696;10.522;2024-02-23T10:13:50;98272.19;;;7.44;100.00
56006;BME280;41888;44.696;10.522;2024-02-23T10:16:18;98283.22;;;7.41;100.00
56006;BME280;41888;44.696;10.522;2024-02-23T10:18:47;98299.50;;;7.33;100.00
56006;BME280;41888;44.696;10.522;2024-02-23T10:21:15;98295.47;;;7.30;100.00
56006;BME280;41888;44.696;10.522;2024-02-23T10:23:41;98288.00;;;7.27;100.00
56006;BME280;41888;44.696;10.522;2024-02-23T10:26:08;98284.19;;;7.35;100.00
56006;BME280;41888;44.696;10.522;2024-02-23T10:28:38;98274.66;;;7.34;100.00
56006;BME280;41888;44.696;10.522;2024-02-23T10:31:05;98269.69;;;7.37;100.00
56006;BME280;41888;44.696;10.522;2024-02-23T10:33:31;98276.81;;;7.37;100.00
56006;BME280;41888;44.696;10.522;2024-02-23T10:35:58;98276.19;;;7.18;100.00
56006;BME280;41888;44.696;10.522;2024-02-23T10:38:32;98272.84;;;7.22;100.00
56006;BME280;41888;44.696;10.522;2024-02-23T10:40:58;98263.97;;;7.29;100.00
56006;BME280;41888;44.696;10.522;2024-02-23T10:43:41;98262.06;;;7.41;100.00
56006;BME280;41888;44.696;10.522;2024-02-23T10:46:08;98255.38;;;7.50;100.00
56006;BME280;41888;44.696;10.522;2024-02-23T10:48:39;98241.81;;;7.63;100.00
56006;BME280;41888;44.696;10.522;2024-02-23T10:51:07;98258.28;;;7.65;100.00
56006;BME280;41888;44.696;10.522;2024-02-23T10:53:35;98258.81;;;7.67;100.00
56006;BME280;41888;44.696;10.522;2024-02-23T10:56:03;98247.53;;;7.72;100.00
56006;BME280;41888;44.696;10.522;2024-02-23T10:58:31;98252.03;;;7.71;100.00
56006;BME280;41888;44.696;10.522;2024-02-23T11:01:06;98268.47;;;7.73;100.00
56006;BME280;41888;44.696;10.522;2024-02-23T11:03:34;98264.69;;;7.69;100.00
56006;BME280;41888;44.696;10.522;2024-02-23T11:06:01;98263.34;;;7.67;100.00
56006;BME280;41888;44.696;10.522;2024-02-23T11:08:33;98254.69;;;7.71;100.00
56006;BME280;41888;44.696;10.522;2024-02-23T11:11:08;98247.19;;;7.68;100.00
56006;BME280;41888;44.696;10.522;2024-02-23T11:13:36;98254.03;;;7.64;100.00
56006;BME280;41888;44.696;10.522;2024-02-23T11:16:06;98267.16;;;7.59;100.00
56006;BME280;41888;44.696;10.522;2024-02-23T11:18:38;98284.47;;;7.50;100.00
56006;BME280;41888;44.696;10.522;2024-02-23T11:21:05;98283.09;;;7.47;100.00
56006;BME280;41888;44.696;10.522;2024-02-23T11:23:47;98284.56;;;7.27;100.00
56006;BME280;41888;44.696;10.522;2024-02-23T11:26:14;98294.41;;;7.31;100.00
56006;BME280;41888;44.696;10.522;2024-02-23T11:31:20;98269.44;;;7.39;100.00
56006;BME280;41888;44.696;10.522;2024-02-23T11:33:51;98270.34;;;7.44;100.00
56006;BME280;41888;44.696;10.522;2024-02-23T11:36:28;98272.72;;;7.46;100.00
56006;BME280;41888;44.696;10.522;2024-02-23T11:38:58;98276.44;;;7.45;100.00
56006;BME280;41888;44.696;10.522;2024-02-23T11:41:25;98279.00;;;7.40;100.00
56006;BME280;41888;44.696;10.522;2024-02-23T11:43:54;98270.53;;;7.26;100.00
56006;BME280;41888;44.696;10.522;2024-02-23T11:46:21;98269.81;;;7.31;100.00
56006;BME280;41888;44.696;10.522;2024-02-23T11:48:48;98260.03;;;7.31;100.00
56006;BME280;41888;44.696;10.522;2024-02-23T11:51:23;98254.19;;;7.29;100.00
56006;BME280;41888;44.696;10.522;2024-02-23T11:53:52;98252.91;;;7.32;100.00
56006;BME280;41888;44.696;10.522;2024-02-23T11:56:19;98265.25;;;7.14;100.00
56006;BME280;41888;44.696;10.522;2024-02-23T11:58:46;98261.88;;;7.02;100.00
56006;BME280;41888;44.696;10.522;2024-02-23T12:01:12;98270.50;;;6.98;100.00
56006;BME280;41888;44.696;10.522;2024-02-23T12:03:39;98266.59;;;7.00;100.00
56006;BME280;41888;44.696;10.522;2024-02-23T12:06:05;98257.66;;;6.90;100.00
56006;BME280;41888;44.696;10.522;2024-02-23T12:08:33;98254.88;;;6.96;100.00
56006;BME280;41888;44.696;10.522;2024-02-23T12:11:07;98238.44;;;6.94;100.00
56006;BME280;41888;44.696;10.522;2024-02-23T12:13:38;98239.47;;;6.93;100.00
56006;BME280;41888;44.696;10.522;2024-02-23T12:16:06;98234.53;;;6.97;100.00
56006;BME280;41888;44.696;10.522;2024-02-23T12:18:36;98224.78;;;6.97;100.00
56006;BME280;41888;44.696;10.522;2024-02-23T12:21:05;98226.22;;;7.05;100.00
56006;BME280;41888;44.696;10.522;2024-02-23T12:23:40;98222.94;;;6.98;100.00
56006;BME280;41888;44.696;10.522;2024-02-23T12:26:06;98215.63;;;7.05;100.00
56006;BME280;41888;44.696;10.522;2024-02-23T12:28:33;98218.81;;;7.18;100.00
56006;BME280;41888;44.696;10.522;2024-02-23T12:31:00;98217.41;;;7.28;100.00
56006;BME280;41888;44.696;10.522;2024-02-23T12:33:36;98227.41;;;7.26;100.00
56006;BME280;41888;44.696;10.522;2024-02-23T12:36:06;98219.94;;;7.22;100.00
56006;BME280;41888;44.696;10.522;2024-02-23T12:38:34;98227.97;;;7.28;100.00
56006;BME280;41888;44.696;10.522;2024-02-23T12:41:01;98228.69;;;7.23;100.00
56006;BME280;41888;44.696;10.522;2024-02-23T12:43:28;98241.09;;;7.22;100.00
56006;BME280;41888;44.696;10.522;2024-02-23T12:45:57;98252.72;;;7.21;100.00
56006;BME280;41888;44.696;10.522;2024-02-23T12:48:24;98239.00;;;7.25;100.00